createdAt,value
2019-03-02T00:01:49.604Z,81.60
2019-03-02T00:04:21.058Z,90.60
2019-03-02T00:06:50.677Z,90.90
2019-03-02T00:09:20.528Z,90.90
2019-03-02T00:11:52.963Z,91.70
2019-03-02T00:14:22.054Z,89.30
2019-03-02T00:16:52.063Z,85.80
2019-03-02T00:19:21.779Z,85.70
2019-03-02T00:21:51.531Z,89.40
2019-03-02T00:24:23.414Z,89.70
2019-03-02T00:26:54.831Z,85.60
2019-03-02T00:29:24.628Z,83.90
2019-03-02T00:31:54.391Z,82.50
2019-03-02T00:34:25.188Z,85.60
2019-03-02T00:36:58.534Z,83.70
2019-03-02T00:39:28.839Z,84.80
2019-03-02T00:41:58.900Z,84.60
2019-03-02T00:44:28.607Z,83.40
2019-03-02T00:46:59.687Z,83.40
2019-03-02T00:49:30.068Z,83.90
2019-03-02T00:52:00.090Z,84.20
2019-03-02T00:54:29.790Z,85.60
2019-03-02T00:56:59.525Z,88.20
2019-03-02T00:59:29.314Z,86.70
2019-03-02T01:02:00.787Z,85.20
2019-03-02T01:04:30.675Z,84.20
2019-03-02T01:07:02.192Z,83.20
2019-03-02T01:09:32.443Z,83.90
2019-03-02T01:12:02.195Z,83.50
2019-03-02T01:14:32.896Z,82.90
2019-03-02T01:17:03.979Z,83.00
2019-03-02T01:19:35.106Z,82.50
2019-03-02T01:22:05.018Z,80.20
2019-03-02T01:24:38.978Z,85.20
2019-03-02T01:27:08.227Z,85.20
2019-03-02T01:29:37.868Z,84.60
2019-03-02T01:32:07.839Z,82.70
2019-03-02T01:34:38.797Z,82.30
2019-03-02T01:37:09.280Z,82.40
2019-03-02T01:39:39.510Z,82.10
2019-03-02T01:42:09.939Z,82.10
2019-03-02T01:44:39.570Z,81.80
2019-03-02T01:47:09.140Z,82.00
2019-03-02T01:49:39.363Z,83.10
2019-03-02T01:52:09.207Z,83.90
2019-03-02T01:54:38.847Z,82.90
2019-03-02T01:57:13.674Z,82.60
2019-03-02T01:59:41.612Z,82.60
2019-03-02T02:02:12.168Z,82.30
2019-03-02T02:04:41.787Z,80.20
2019-03-02T02:07:14.440Z,83.80
2019-03-02T02:09:43.090Z,81.40
2019-03-02T02:12:13.279Z,84.10
2019-03-02T02:14:42.980Z,83.50
2019-03-02T02:17:14.500Z,82.90
2019-03-02T02:19:44.402Z,80.50
2019-03-02T02:22:14.197Z,84.20
2019-03-02T02:24:43.823Z,83.00
2019-03-02T02:27:14.678Z,82.60
2019-03-02T02:29:45.527Z,83.20
2019-03-02T02:32:19.182Z,82.80
2019-03-02T02:34:49.732Z,82.90
2019-03-02T02:37:19.566Z,83.60
2019-03-02T02:39:50.438Z,82.80
2019-03-02T02:42:23.253Z,82.60
2019-03-02T02:44:53.187Z,82.90
2019-03-02T02:47:22.818Z,82.70
2019-03-02T02:49:52.752Z,82.30
2019-03-02T02:52:28.088Z,82.40
2019-03-02T02:54:57.655Z,83.70
2019-03-02T02:57:27.834Z,83.10
2019-03-02T02:59:57.476Z,83.60
2019-03-02T03:02:27.148Z,85.20
2019-03-02T03:04:56.890Z,84.90
2019-03-02T03:07:26.718Z,84.20
2019-03-02T03:10:02.457Z,83.50
2019-03-02T03:12:35.486Z,84.10
2019-03-02T03:15:07.284Z,84.40
2019-03-02T03:17:38.583Z,84.10
2019-03-02T03:20:10.373Z,84.10
2019-03-02T03:22:46.017Z,84.00
2019-03-02T03:25:18.092Z,83.40
2019-03-02T03:27:51.907Z,82.90
2019-03-02T03:30:33.977Z,83.40
2019-03-02T03:32:56.022Z,83.00
2019-03-02T03:35:26.075Z,83.50
2019-03-02T03:37:55.724Z,84.10
2019-03-02T03:40:26.921Z,83.80
2019-03-02T03:43:02.955Z,83.20
2019-03-02T03:45:29.741Z,83.40
2019-03-02T03:47:59.590Z,85.30
2019-03-02T03:50:29.719Z,85.80
2019-03-02T03:52:59.443Z,84.30
2019-03-02T03:55:29.071Z,84.20
2019-03-02T03:58:01.948Z,83.50
2019-03-02T04:00:34.334Z,83.80
2019-03-02T04:03:04.116Z,84.10
2019-03-02T04:05:33.816Z,83.40
2019-03-02T04:08:05.832Z,84.20
2019-03-02T04:10:37.100Z,83.00
2019-03-02T04:13:09.879Z,83.00
2019-03-02T04:15:41.571Z,82.80
2019-03-02T04:18:55.498Z,82.60
2019-03-02T04:21:23.379Z,82.60
2019-03-02T04:23:56.096Z,82.90
2019-03-02T04:26:25.460Z,82.60
2019-03-02T04:28:55.080Z,82.40
2019-03-02T04:31:25.481Z,82.70
2019-03-02T04:33:55.626Z,84.10
2019-03-02T04:36:27.012Z,83.80
2019-03-02T04:38:59.163Z,84.50
2019-03-02T04:41:28.848Z,84.70
2019-03-02T04:43:58.514Z,83.90
2019-03-02T04:46:30.364Z,84.40
2019-03-02T04:49:00.072Z,84.70
2019-03-02T04:51:35.049Z,88.30
2019-03-02T04:54:03.039Z,86.30
2019-03-02T04:56:34.327Z,88.30
2019-03-02T04:59:06.116Z,88.20
2019-03-02T05:01:38.936Z,89.40
2019-03-02T05:04:09.978Z,90.10
2019-03-02T05:06:39.783Z,90.90
2019-03-02T05:09:09.640Z,89.40
2019-03-02T05:11:40.752Z,90.40
2019-03-02T05:14:11.992Z,91.60
2019-03-02T05:16:43.208Z,90.80
2019-03-02T05:19:13.447Z,89.10
2019-03-02T05:21:43.578Z,87.90
2019-03-02T05:24:14.098Z,88.50
2019-03-02T05:26:43.703Z,87.40
2019-03-02T05:29:17.678Z,88.80
2019-03-02T05:31:46.582Z,88.30
2019-03-02T05:34:16.331Z,89.30
2019-03-02T05:36:46.008Z,88.40
2019-03-02T05:39:18.096Z,87.80
2019-03-02T05:41:48.426Z,90.00
2019-03-02T05:44:19.183Z,91.10
2019-03-02T05:46:48.949Z,90.40
2019-03-02T05:49:19.939Z,89.80
2019-03-02T05:51:49.514Z,89.80
2019-03-02T05:54:19.119Z,89.80
2019-03-02T05:56:49.103Z,89.70
2019-03-02T05:59:22.857Z,90.00
2019-03-02T06:01:50.728Z,90.20
2019-03-02T06:04:22.013Z,88.80
2019-03-02T06:06:54.157Z,87.90
2019-03-02T06:09:25.534Z,88.60
2019-03-02T06:11:57.325Z,89.30
2019-03-02T06:14:30.506Z,88.90
2019-03-02T06:17:00.520Z,89.80
2019-03-02T06:19:30.191Z,89.80
2019-03-02T06:21:59.975Z,90.00
2019-03-02T06:24:30.764Z,89.90
2019-03-02T06:27:01.672Z,90.20
2019-03-02T06:29:32.782Z,90.40
2019-03-02T06:32:04.211Z,90.60
2019-03-02T06:34:34.000Z,93.20
2019-03-02T06:37:03.640Z,93.10
2019-03-02T06:39:33.443Z,93.30
2019-03-02T06:42:06.200Z,92.70
2019-03-02T06:44:36.725Z,93.30
2019-03-02T06:47:06.348Z,94.20
2019-03-02T06:49:38.695Z,93.30
2019-03-02T06:52:08.499Z,92.60
2019-03-02T06:54:40.589Z,93.80
2019-03-02T06:57:14.026Z,93.50
2019-03-02T06:59:44.417Z,93.30
2019-03-02T07:02:14.831Z,93.60
2019-03-02T07:04:46.135Z,93.80
2019-03-02T07:07:18.551Z,93.40
2019-03-02T07:09:49.235Z,93.20
2019-03-02T07:12:19.984Z,93.60
2019-03-02T07:14:51.881Z,95.20
2019-03-02T07:17:39.391Z,94.70
2019-03-02T07:20:15.647Z,95.20
2019-03-02T07:22:48.702Z,93.80
2019-03-02T07:25:17.937Z,93.20
2019-03-02T07:27:47.736Z,92.60
2019-03-02T07:30:19.412Z,93.20
2019-03-02T07:32:49.268Z,94.70
2019-03-02T07:35:19.546Z,94.30
2019-03-02T07:37:51.175Z,93.60
2019-03-02T07:40:21.973Z,92.70
2019-03-02T07:42:53.498Z,96.00
2019-03-02T07:45:23.159Z,95.20
2019-03-02T07:48:00.290Z,95.60
2019-03-02T07:50:29.605Z,95.00
2019-03-02T07:52:59.232Z,94.40
2019-03-02T07:55:28.855Z,94.10
2019-03-02T07:57:58.446Z,93.20
2019-03-02T08:00:29.875Z,93.30
2019-03-02T08:03:00.041Z,92.40
2019-03-02T08:05:31.114Z,91.90
2019-03-02T08:08:00.796Z,91.10
2019-03-02T08:10:30.406Z,90.90
2019-03-02T08:13:00.813Z,91.40
2019-03-02T08:15:31.703Z,92.10
2019-03-02T08:18:01.928Z,90.60
2019-03-02T08:20:31.691Z,90.70
2019-03-02T08:23:02.741Z,91.70
2019-03-02T08:25:32.399Z,90.80
2019-03-02T08:28:06.755Z,91.20
2019-03-02T08:30:35.222Z,92.20
2019-03-02T08:33:04.966Z,91.40
2019-03-02T08:35:34.611Z,92.70
2019-03-02T08:38:05.290Z,92.90
2019-03-02T08:40:37.070Z,92.70
2019-03-02T08:43:06.877Z,93.60
2019-03-02T08:45:36.528Z,93.90
2019-03-02T08:48:07.358Z,94.60
2019-03-02T08:50:38.778Z,94.20
2019-03-02T08:53:11.380Z,94.10
2019-03-02T08:55:41.032Z,92.20
2019-03-02T08:58:11.280Z,93.40
2019-03-02T09:00:43.148Z,94.60
2019-03-02T09:03:14.077Z,92.70
2019-03-02T09:05:51.277Z,91.80
2019-03-02T09:08:15.876Z,93.20
2019-03-02T09:10:48.824Z,92.70
2019-03-02T09:13:18.884Z,93.90
2019-03-02T09:15:50.336Z,93.40
2019-03-02T09:18:20.396Z,92.50
2019-03-02T09:20:50.103Z,93.50
2019-03-02T09:23:19.650Z,94.00
2019-03-02T09:25:49.375Z,93.50
2019-03-02T09:28:19.051Z,93.00
2019-03-02T09:30:48.882Z,92.30
2019-03-02T09:33:18.643Z,91.40
2019-03-02T09:35:54.709Z,91.10
2019-03-02T09:38:23.760Z,91.60
2019-03-02T09:40:56.928Z,91.60
2019-03-02T09:43:27.747Z,90.70
2019-03-02T09:45:59.164Z,90.70
2019-03-02T09:48:28.903Z,91.20
2019-03-02T09:50:59.935Z,91.70
2019-03-02T09:53:30.549Z,92.60
2019-03-02T09:56:03.425Z,91.90
2019-03-02T09:58:34.891Z,93.20
2019-03-02T10:01:04.871Z,92.60
2019-03-02T10:03:35.008Z,93.60
2019-03-02T10:06:05.016Z,92.50
2019-03-02T10:08:34.635Z,91.20
2019-03-02T10:11:06.115Z,91.20
2019-03-02T10:13:36.728Z,92.20
2019-03-02T10:16:07.126Z,93.50
2019-03-02T10:18:36.695Z,93.40
2019-03-02T10:21:06.539Z,93.90
2019-03-02T10:23:38.932Z,94.40
2019-03-02T10:26:08.944Z,95.70
2019-03-02T10:28:40.059Z,94.60
2019-03-02T10:31:09.774Z,94.60
2019-03-02T10:33:39.341Z,93.50
2019-03-02T10:36:08.974Z,92.80
2019-03-02T10:38:38.763Z,94.00
2019-03-02T10:41:09.246Z,94.40
2019-03-02T10:43:45.570Z,93.60
2019-03-02T10:46:15.672Z,93.80
2019-03-02T10:48:45.605Z,94.50
2019-03-02T10:51:15.372Z,93.90
2019-03-02T10:53:44.979Z,93.70
2019-03-02T10:56:16.934Z,93.00
2019-03-02T10:58:46.807Z,93.60
2019-03-02T11:01:17.938Z,93.60
2019-03-02T11:03:47.712Z,93.50
2019-03-02T11:06:33.045Z,94.20
2019-03-02T11:09:27.599Z,94.70
2019-03-02T11:12:09.452Z,94.00
2019-03-02T11:14:48.834Z,94.10
2019-03-02T11:17:40.798Z,93.50
2019-03-02T11:20:27.223Z,92.40
2019-03-02T11:23:19.678Z,93.50
2019-03-02T11:26:17.083Z,92.90
2019-03-02T11:29:21.212Z,92.40
2019-03-02T11:32:12.518Z,92.10
2019-03-02T11:35:14.503Z,92.60
2019-03-02T11:38:02.843Z,92.20
2019-03-02T11:40:46.799Z,92.40
2019-03-02T11:43:36.940Z,91.90
2019-03-02T11:46:16.208Z,92.10
2019-03-02T11:48:56.849Z,92.00
2019-03-02T11:51:38.821Z,90.70
2019-03-02T11:54:15.868Z,91.90
2019-03-02T11:57:21.120Z,92.20
2019-03-02T12:00:22.503Z,91.30
2019-03-02T12:03:02.424Z,90.70
2019-03-02T12:05:51.315Z,91.00
2019-03-02T12:08:39.812Z,91.20
2019-03-02T12:11:18.088Z,92.00
2019-03-02T12:13:58.343Z,91.50
2019-03-02T12:17:05.911Z,93.30
2019-03-02T12:19:55.759Z,91.10
2019-03-02T12:22:38.320Z,91.70
2019-03-02T12:25:35.086Z,91.20
2019-03-02T12:28:22.453Z,91.60
2019-03-02T12:31:12.090Z,91.90
2019-03-02T12:33:47.647Z,92.00
2019-03-02T12:36:43.568Z,92.00
2019-03-02T12:39:34.373Z,92.30
2019-03-02T12:42:22.004Z,91.80
2019-03-02T12:45:30.059Z,92.20
2019-03-02T12:48:34.404Z,92.00
2019-03-02T12:51:23.018Z,92.80
2019-03-02T12:54:09.219Z,92.10
2019-03-02T12:56:57.711Z,92.40
2019-03-02T13:00:02.250Z,92.20
2019-03-02T13:02:56.055Z,92.30
2019-03-02T13:05:43.299Z,91.90
2019-03-02T13:08:34.993Z,92.10
2019-03-02T13:11:28.871Z,91.40
2019-03-02T13:14:18.456Z,91.80
2019-03-02T13:17:06.006Z,92.00
2019-03-02T13:19:50.788Z,91.60
2019-03-02T13:22:35.553Z,91.70
2019-03-02T13:25:33.670Z,91.60
2019-03-02T13:28:30.917Z,92.30
2019-03-02T13:31:22.323Z,91.80
2019-03-02T13:34:11.675Z,91.00
2019-03-02T13:37:06.262Z,91.00
2019-03-02T13:39:59.841Z,91.20
2019-03-02T13:42:51.069Z,90.80
2019-03-02T13:45:45.892Z,91.30
2019-03-02T13:48:51.122Z,91.10
2019-03-02T13:51:43.727Z,91.70
2019-03-02T13:54:39.930Z,91.90
2019-03-02T13:57:17.377Z,91.50
2019-03-02T14:00:07.924Z,92.00
2019-03-02T14:02:57.819Z,91.40
2019-03-02T14:05:43.004Z,91.50
2019-03-02T14:08:31.907Z,91.30
2019-03-02T14:11:20.411Z,91.10
2019-03-02T14:14:03.223Z,91.50
2019-03-02T14:17:08.393Z,91.40
2019-03-02T14:19:55.833Z,91.60
2019-03-02T14:22:44.893Z,91.90
2019-03-02T14:25:42.777Z,92.70
2019-03-02T14:28:25.221Z,92.60
2019-03-02T14:31:20.110Z,92.30
2019-03-02T14:34:19.201Z,92.50
2019-03-02T14:36:57.491Z,92.40
2019-03-02T14:39:39.341Z,93.80
2019-03-02T14:42:17.251Z,93.30
2019-03-02T14:45:10.838Z,93.80
2019-03-02T14:48:17.753Z,94.00
2019-03-02T14:51:01.987Z,94.20
2019-03-02T14:53:53.534Z,93.70
2019-03-02T14:56:49.264Z,93.50
2019-03-02T14:59:41.916Z,93.50
2019-03-02T15:02:41.367Z,93.70
2019-03-02T15:05:30.184Z,94.50
2019-03-02T15:08:21.824Z,94.60
2019-03-02T15:11:07.953Z,95.10
2019-03-02T15:13:55.158Z,97.40
2019-03-02T15:16:43.354Z,96.20
2019-03-02T15:19:31.376Z,96.00
2019-03-02T15:22:36.658Z,95.90
2019-03-02T15:25:29.667Z,97.70
2019-03-02T15:28:10.424Z,96.50
2019-03-02T15:31:03.082Z,98.10
2019-03-02T15:33:58.262Z,97.70
2019-03-02T15:36:51.827Z,99.60
2019-03-02T15:39:53.651Z,99.90
2019-03-02T15:42:46.732Z,99.20
2019-03-02T15:45:25.204Z,99.50
2019-03-02T15:48:05.911Z,96.30
2019-03-02T15:50:54.590Z,97.50
2019-03-02T15:53:44.096Z,95.80
2019-03-02T15:56:31.988Z,99.30
2019-03-02T15:59:23.851Z,97.20
2019-03-02T16:02:13.822Z,99.90
2019-03-02T16:05:20.819Z,98.60
2019-03-02T16:08:14.451Z,98.40
2019-03-02T16:11:08.815Z,96.20
2019-03-02T16:14:07.615Z,97.80
2019-03-02T16:16:59.998Z,96.90
2019-03-02T16:19:48.950Z,96.20
2019-03-02T16:22:30.057Z,97.80
2019-03-02T16:25:09.455Z,99.30
2019-03-02T16:28:06.037Z,98.10
2019-03-02T16:31:12.507Z,98.20
2019-03-02T16:34:07.942Z,96.80
2019-03-02T16:36:43.848Z,98.30
2019-03-02T16:39:39.004Z,98.80
2019-03-02T16:42:23.390Z,99.00
2019-03-02T16:44:58.519Z,99.90
2019-03-02T16:47:56.871Z,98.00
2019-03-02T16:50:35.698Z,97.90
2019-03-02T16:53:30.415Z,94.60
2019-03-02T16:56:37.323Z,98.40
2019-03-02T16:59:46.673Z,96.00
2019-03-02T17:02:41.295Z,97.40
2019-03-02T17:05:33.048Z,99.90
2019-03-02T17:08:18.474Z,98.80
2019-03-02T17:11:04.101Z,99.60
2019-03-02T17:14:09.192Z,99.70
2019-03-02T17:17:03.829Z,99.90
2019-03-02T17:19:51.091Z,99.90
2019-03-02T17:22:45.047Z,99.90
2019-03-02T17:25:34.701Z,99.90
2019-03-02T17:28:31.509Z,99.90
2019-03-02T17:31:17.111Z,99.70
2019-03-02T17:34:09.806Z,99.90
2019-03-02T17:36:46.851Z,97.30
2019-03-02T17:39:41.952Z,99.80
2019-03-02T17:42:31.754Z,99.80
2019-03-02T17:45:27.497Z,99.90
2019-03-02T17:51:13.126Z,99.90
2019-03-02T17:54:07.439Z,99.90
2019-03-02T17:56:59.127Z,99.90
2019-03-02T17:59:53.590Z,99.90
2019-03-02T18:02:53.894Z,99.90
2019-03-02T18:05:44.112Z,99.80
2019-03-02T18:08:31.880Z,99.90
2019-03-02T18:11:19.433Z,99.90
2019-03-02T18:14:07.956Z,99.90
2019-03-02T18:16:56.715Z,99.90
2019-03-02T18:19:26.280Z,99.90
2019-03-02T18:21:55.950Z,99.90
2019-03-02T18:24:25.742Z,99.90
2019-03-02T18:26:57.023Z,99.90
2019-03-02T18:29:29.301Z,99.90
2019-03-02T18:32:02.340Z,99.90
2019-03-02T18:34:33.142Z,99.90
2019-03-02T18:37:03.603Z,99.90
2019-03-02T18:39:33.363Z,99.90
2019-03-02T18:42:04.384Z,99.90
2019-03-02T18:44:34.342Z,99.90
2019-03-02T18:47:04.897Z,99.90
2019-03-02T18:49:51.638Z,99.90
2019-03-02T18:52:43.288Z,99.90
2019-03-02T18:55:12.926Z,99.90
2019-03-02T18:57:46.514Z,99.90
2019-03-02T19:00:22.139Z,99.90
2019-03-02T19:02:50.489Z,98.80
2019-03-02T19:05:28.704Z,99.90
2019-03-02T19:07:59.735Z,99.70
2019-03-02T19:10:29.592Z,98.60
2019-03-02T19:12:59.480Z,99.30
2019-03-02T19:15:29.454Z,99.70
2019-03-02T19:17:59.116Z,99.90
2019-03-02T19:20:29.876Z,99.90
2019-03-02T19:22:59.411Z,99.90
2019-03-02T19:25:30.132Z,99.90
2019-03-02T19:28:02.372Z,99.40
2019-03-02T19:30:32.040Z,99.90
2019-03-02T19:33:02.955Z,99.90
2019-03-02T19:35:33.805Z,99.40
2019-03-02T19:38:05.830Z,99.90
2019-03-02T19:40:38.358Z,99.90
2019-03-02T19:43:08.063Z,99.90
2019-03-02T19:45:38.112Z,99.90
2019-03-02T19:48:07.832Z,98.90
2019-03-02T19:50:37.419Z,99.80
2019-03-02T19:53:07.055Z,99.30
2019-03-02T19:55:41.771Z,99.90
2019-03-02T19:58:11.516Z,99.90
2019-03-02T20:00:41.616Z,99.90
2019-03-02T20:03:12.671Z,99.90
2019-03-02T20:05:42.951Z,99.90
2019-03-02T20:08:14.859Z,99.90
2019-03-02T20:10:46.880Z,99.90
2019-03-02T20:13:16.555Z,99.90
2019-03-02T20:15:46.826Z,99.90
2019-03-02T20:18:17.832Z,99.90
2019-03-02T20:20:47.737Z,99.90
2019-03-02T20:23:18.532Z,99.90
2019-03-02T20:25:48.520Z,99.90
2019-03-02T20:28:18.159Z,99.90
2019-03-02T20:30:48.183Z,99.90
2019-03-02T20:33:18.135Z,98.20
2019-03-02T20:35:47.721Z,99.90
2019-03-02T20:38:17.617Z,99.90
2019-03-02T20:40:47.207Z,99.90
2019-03-02T20:43:20.467Z,99.90
2019-03-02T20:45:50.143Z,99.90
2019-03-02T20:48:19.980Z,99.90
2019-03-02T20:50:49.747Z,99.90
2019-03-02T20:53:21.599Z,99.90
2019-03-02T20:55:51.391Z,99.90
2019-03-02T20:58:22.821Z,99.90
2019-03-02T21:00:52.600Z,99.80
2019-03-02T21:03:22.319Z,99.90
2019-03-02T21:05:52.373Z,99.90
2019-03-02T21:08:22.266Z,98.40
2019-03-02T21:10:52.128Z,99.90
2019-03-02T21:13:21.738Z,99.90
2019-03-02T21:15:52.526Z,99.90
2019-03-02T21:18:23.531Z,99.90
2019-03-02T21:20:53.616Z,99.90
2019-03-02T21:23:23.241Z,99.90
2019-03-02T21:25:55.163Z,99.90
2019-03-02T21:28:27.179Z,99.90
2019-03-02T21:30:57.048Z,99.90
2019-03-02T21:33:26.807Z,99.90
2019-03-02T21:35:56.911Z,99.90
2019-03-02T21:38:26.956Z,99.90
2019-03-02T21:40:56.990Z,99.90
2019-03-02T21:43:26.692Z,99.90
2019-03-02T21:45:56.599Z,99.90
2019-03-02T21:48:26.299Z,99.90
2019-03-02T21:50:57.492Z,99.90
2019-03-02T21:53:27.595Z,99.60
2019-03-02T21:55:57.164Z,99.90
2019-03-02T21:58:28.660Z,99.80
2019-03-02T22:00:58.633Z,99.70
2019-03-02T22:03:28.473Z,98.50
2019-03-02T22:05:59.251Z,99.60
2019-03-02T22:08:28.991Z,99.50
2019-03-02T22:11:02.816Z,98.10
2019-03-02T22:13:32.514Z,99.20
2019-03-02T22:16:03.732Z,99.10
2019-03-02T22:18:33.493Z,99.20
2019-03-02T22:21:03.322Z,98.10
2019-03-02T22:23:32.907Z,98.40
2019-03-02T22:26:04.123Z,99.70
2019-03-02T22:28:33.849Z,98.70
2019-03-02T22:31:03.637Z,98.50
2019-03-02T22:33:33.407Z,97.80
2019-03-02T22:36:03.150Z,97.90
2019-03-02T22:38:32.872Z,98.10
2019-03-02T22:41:02.522Z,98.20
2019-03-02T22:43:32.292Z,98.40
2019-03-02T22:46:02.399Z,98.60
2019-03-02T22:48:32.152Z,98.30
2019-03-02T22:51:02.586Z,98.70
2019-03-02T22:53:33.346Z,98.60
2019-03-02T22:56:03.131Z,98.90
2019-03-02T22:58:32.078Z,98.10
2019-03-02T23:01:55.299Z,99.00
2019-03-02T23:04:25.047Z,98.80
2019-03-02T23:06:54.803Z,98.70
2019-03-02T23:09:24.716Z,99.30
2019-03-02T23:11:54.722Z,99.90
2019-03-02T23:14:24.316Z,99.90
2019-03-02T23:16:55.228Z,99.90
2019-03-02T23:19:25.288Z,99.90
2019-03-02T23:21:55.103Z,99.90
2019-03-02T23:24:24.993Z,99.80
2019-03-02T23:26:54.660Z,99.80
2019-03-02T23:29:24.516Z,99.90
2019-03-02T23:31:54.184Z,99.90
2019-03-02T23:34:23.853Z,99.90
2019-03-02T23:36:55.339Z,99.90
2019-03-02T23:39:25.975Z,99.80
2019-03-02T23:41:55.694Z,98.90
2019-03-02T23:44:27.126Z,99.20
2019-03-02T23:46:56.720Z,99.90
2019-03-02T23:49:26.394Z,99.90
2019-03-02T23:51:57.450Z,98.90
2019-03-02T23:54:27.139Z,98.20
2019-03-02T23:56:57.890Z,98.00
2019-03-02T23:59:28.071Z,98.60
